sensor_id;sensor_type;location;lat;lon;timestamp;P1;durP1;ratioP1;P2;durP2;ratioP2
62927;SDS011;51070;52.236;-0.892;2023-03-31T00:00:25;5.50;;;1.30;;
62927;SDS011;51070;52.236;-0.892;2023-03-31T00:02:51;7.30;;;1.90;;
62927;SDS011;51070;52.236;-0.892;2023-03-31T00:05:19;5.00;;;1.20;;
62927;SDS011;51070;52.236;-0.892;2023-03-31T00:07:45;4.90;;;1.70;;
62927;SDS011;51070;52.236;-0.892;2023-03-31T00:10:12;4.30;;;1.10;;
62927;SDS011;51070;52.236;-0.892;2023-03-31T00:12:39;4.20;;;2.00;;
62927;SDS011;51070;52.236;-0.892;2023-03-31T00:15:05;6.80;;;1.30;;
62927;SDS011;51070;52.236;-0.892;2023-03-31T00:17:31;3.50;;;1.20;;
62927;SDS011;51070;52.236;-0.892;2023-03-31T00:19:57;3.60;;;1.20;;
62927;SDS011;51070;52.236;-0.892;2023-03-31T00:22:28;4.90;;;1.20;;
62927;SDS011;51070;52.236;-0.892;2023-03-31T00:27:18;5.60;;;1.10;;
62927;SDS011;51070;52.236;-0.892;2023-03-31T00:29:44;4.80;;;1.40;;
62927;SDS011;51070;52.236;-0.892;2023-03-31T00:32:09;3.40;;;1.10;;
62927;SDS011;51070;52.236;-0.892;2023-03-31T00:34:35;6.20;;;1.30;;
62927;SDS011;51070;52.236;-0.892;2023-03-31T00:37:02;4.80;;;1.70;;
62927;SDS011;51070;52.236;-0.892;2023-03-31T00:39:28;5.50;;;1.20;;
62927;SDS011;51070;52.236;-0.892;2023-03-31T00:42:00;4.50;;;1.00;;
62927;SDS011;51070;52.236;-0.892;2023-03-31T00:44:28;6.10;;;1.10;;
62927;SDS011;51070;52.236;-0.892;2023-03-31T00:49:41;4.20;;;1.30;;
62927;SDS011;51070;52.236;-0.892;2023-03-31T00:54:53;4.90;;;1.50;;
62927;SDS011;51070;52.236;-0.892;2023-03-31T00:57:23;5.00;;;1.10;;
62927;SDS011;51070;52.236;-0.892;2023-03-31T00:59:53;4.10;;;1.10;;
62927;SDS011;51070;52.236;-0.892;2023-03-31T01:02:23;3.60;;;1.00;;
62927;SDS011;51070;52.236;-0.892;2023-03-31T01:04:53;3.90;;;0.90;;
62927;SDS011;51070;52.236;-0.892;2023-03-31T01:07:28;3.30;;;1.20;;
62927;SDS011;51070;52.236;-0.892;2023-03-31T01:10:10;3.20;;;0.90;;
62927;SDS011;51070;52.236;-0.892;2023-03-31T01:12:38;3.50;;;0.80;;
62927;SDS011;51070;52.236;-0.892;2023-03-31T01:17:32;2.60;;;1.00;;
62927;SDS011;51070;52.236;-0.892;2023-03-31T01:45:43;5.40;;;1.50;;
62927;SDS011;51070;52.236;-0.892;2023-03-31T01:48:20;5.20;;;1.10;;
62927;SDS011;51070;52.236;-0.892;2023-03-31T01:51:01;3.40;;;1.10;;
62927;SDS011;51070;52.236;-0.892;2023-03-31T01:53:44;2.80;;;1.10;;
62927;SDS011;51070;52.236;-0.892;2023-03-31T01:56:21;5.70;;;1.40;;
62927;SDS011;51070;52.236;-0.892;2023-03-31T01:58:56;7.10;;;1.80;;
62927;SDS011;51070;52.236;-0.892;2023-03-31T02:01:50;4.60;;;1.50;;
62927;SDS011;51070;52.236;-0.892;2023-03-31T02:04:27;4.60;;;1.60;;
62927;SDS011;51070;52.236;-0.892;2023-03-31T02:06:58;2.70;;;0.90;;
62927;SDS011;51070;52.236;-0.892;2023-03-31T02:09:34;7.10;;;1.70;;
62927;SDS011;51070;52.236;-0.892;2023-03-31T02:12:04;4.90;;;1.20;;
62927;SDS011;51070;52.236;-0.892;2023-03-31T02:14:33;7.90;;;2.40;;
62927;SDS011;51070;52.236;-0.892;2023-03-31T02:17:02;5.10;;;2.00;;
62927;SDS011;51070;52.236;-0.892;2023-03-31T02:19:34;7.10;;;2.00;;
62927;SDS011;51070;52.236;-0.892;2023-03-31T02:22:05;5.70;;;1.60;;
62927;SDS011;51070;52.236;-0.892;2023-03-31T02:24:33;4.80;;;1.30;;
62927;SDS011;51070;52.236;-0.892;2023-03-31T02:27:03;4.60;;;1.20;;
62927;SDS011;51070;52.236;-0.892;2023-03-31T02:34:40;4.80;;;0.90;;
62927;SDS011;51070;52.236;-0.892;2023-03-31T02:37:06;6.70;;;1.40;;
62927;SDS011;51070;52.236;-0.892;2023-03-31T02:39:33;4.80;;;1.20;;
62927;SDS011;51070;52.236;-0.892;2023-03-31T02:44:37;2.30;;;0.70;;
62927;SDS011;51070;52.236;-0.892;2023-03-31T02:47:04;3.20;;;1.00;;
62927;SDS011;51070;52.236;-0.892;2023-03-31T03:06:01;7.60;;;1.10;;
62927;SDS011;51070;52.236;-0.892;2023-03-31T03:19:54;2.10;;;0.90;;
62927;SDS011;51070;52.236;-0.892;2023-03-31T03:22:23;2.10;;;0.90;;
62927;SDS011;51070;52.236;-0.892;2023-03-31T03:24:48;1.90;;;0.60;;
62927;SDS011;51070;52.236;-0.892;2023-03-31T03:27:15;1.70;;;0.60;;
62927;SDS011;51070;52.236;-0.892;2023-03-31T03:29:41;2.80;;;0.80;;
62927;SDS011;51070;52.236;-0.892;2023-03-31T03:32:08;5.00;;;1.10;;
62927;SDS011;51070;52.236;-0.892;2023-03-31T03:34:34;3.00;;;0.70;;
62927;SDS011;51070;52.236;-0.892;2023-03-31T03:37:00;3.30;;;0.80;;
62927;SDS011;51070;52.236;-0.892;2023-03-31T03:39:25;2.40;;;0.80;;
62927;SDS011;51070;52.236;-0.892;2023-03-31T03:41:51;4.20;;;1.20;;
62927;SDS011;51070;52.236;-0.892;2023-03-31T03:44:16;6.30;;;1.10;;
62927;SDS011;51070;52.236;-0.892;2023-03-31T03:46:42;1.80;;;0.70;;
62927;SDS011;51070;52.236;-0.892;2023-03-31T03:49:07;2.80;;;1.00;;
62927;SDS011;51070;52.236;-0.892;2023-03-31T03:51:33;4.40;;;1.20;;
62927;SDS011;51070;52.236;-0.892;2023-03-31T03:53:58;2.80;;;1.00;;
62927;SDS011;51070;52.236;-0.892;2023-03-31T03:56:23;1.00;;;0.50;;
62927;SDS011;51070;52.236;-0.892;2023-03-31T03:58:50;4.20;;;0.90;;
62927;SDS011;51070;52.236;-0.892;2023-03-31T04:01:16;4.20;;;1.10;;
62927;SDS011;51070;52.236;-0.892;2023-03-31T04:03:42;2.40;;;1.00;;
62927;SDS011;51070;52.236;-0.892;2023-03-31T04:06:08;4.10;;;1.00;;
62927;SDS011;51070;52.236;-0.892;2023-03-31T04:08:34;4.00;;;1.20;;
62927;SDS011;51070;52.236;-0.892;2023-03-31T04:10:59;3.40;;;1.90;;
62927;SDS011;51070;52.236;-0.892;2023-03-31T04:13:25;3.60;;;1.30;;
62927;SDS011;51070;52.236;-0.892;2023-03-31T04:15:51;6.00;;;0.90;;
62927;SDS011;51070;52.236;-0.892;2023-03-31T04:18:16;6.90;;;2.10;;
62927;SDS011;51070;52.236;-0.892;2023-03-31T04:20:51;4.20;;;1.50;;
62927;SDS011;51070;52.236;-0.892;2023-03-31T04:23:30;8.90;;;1.20;;
62927;SDS011;51070;52.236;-0.892;2023-03-31T04:25:57;4.70;;;1.20;;
62927;SDS011;51070;52.236;-0.892;2023-03-31T04:28:23;5.20;;;1.40;;
62927;SDS011;51070;52.236;-0.892;2023-03-31T04:30:51;7.30;;;1.80;;
62927;SDS011;51070;52.236;-0.892;2023-03-31T04:33:19;2.50;;;1.00;;
62927;SDS011;51070;52.236;-0.892;2023-03-31T04:35:45;5.10;;;1.10;;
62927;SDS011;51070;52.236;-0.892;2023-03-31T04:38:18;2.40;;;1.30;;
62927;SDS011;51070;52.236;-0.892;2023-03-31T04:40:49;1.90;;;0.80;;
62927;SDS011;51070;52.236;-0.892;2023-03-31T04:43:16;5.00;;;1.20;;
62927;SDS011;51070;52.236;-0.892;2023-03-31T04:45:43;7.40;;;1.60;;
62927;SDS011;51070;52.236;-0.892;2023-03-31T04:48:09;3.80;;;1.00;;
62927;SDS011;51070;52.236;-0.892;2023-03-31T04:50:35;2.40;;;0.90;;
62927;SDS011;51070;52.236;-0.892;2023-03-31T04:53:01;5.30;;;1.80;;
62927;SDS011;51070;52.236;-0.892;2023-03-31T04:55:27;4.20;;;0.80;;
62927;SDS011;51070;52.236;-0.892;2023-03-31T04:57:52;5.10;;;0.90;;
62927;SDS011;51070;52.236;-0.892;2023-03-31T05:00:18;3.50;;;1.00;;
62927;SDS011;51070;52.236;-0.892;2023-03-31T05:02:45;3.40;;;1.00;;
62927;SDS011;51070;52.236;-0.892;2023-03-31T05:05:10;5.90;;;1.10;;
62927;SDS011;51070;52.236;-0.892;2023-03-31T05:07:36;7.60;;;1.40;;
62927;SDS011;51070;52.236;-0.892;2023-03-31T05:10:03;6.90;;;1.30;;
62927;SDS011;51070;52.236;-0.892;2023-03-31T05:12:32;7.60;;;1.60;;
62927;SDS011;51070;52.236;-0.892;2023-03-31T05:14:59;7.20;;;1.90;;
62927;SDS011;51070;52.236;-0.892;2023-03-31T05:17:25;3.10;;;1.20;;
62927;SDS011;51070;52.236;-0.892;2023-03-31T05:19:51;6.40;;;2.00;;
62927;SDS011;51070;52.236;-0.892;2023-03-31T05:22:17;4.40;;;1.30;;
62927;SDS011;51070;52.236;-0.892;2023-03-31T05:24:45;3.30;;;1.30;;
62927;SDS011;51070;52.236;-0.892;2023-03-31T05:27:11;5.40;;;1.40;;
62927;SDS011;51070;52.236;-0.892;2023-03-31T05:29:37;2.80;;;1.10;;
62927;SDS011;51070;52.236;-0.892;2023-03-31T05:32:03;8.70;;;2.90;;
62927;SDS011;51070;52.236;-0.892;2023-03-31T05:34:28;7.60;;;1.60;;
62927;SDS011;51070;52.236;-0.892;2023-03-31T05:36:54;7.30;;;2.10;;
62927;SDS011;51070;52.236;-0.892;2023-03-31T05:39:20;4.80;;;1.40;;
62927;SDS011;51070;52.236;-0.892;2023-03-31T05:41:46;9.30;;;1.90;;
62927;SDS011;51070;52.236;-0.892;2023-03-31T05:44:12;6.60;;;1.30;;
62927;SDS011;51070;52.236;-0.892;2023-03-31T05:46:37;3.40;;;0.90;;
62927;SDS011;51070;52.236;-0.892;2023-03-31T05:49:03;4.40;;;1.30;;
62927;SDS011;51070;52.236;-0.892;2023-03-31T05:51:28;8.60;;;1.50;;
62927;SDS011;51070;52.236;-0.892;2023-03-31T05:53:53;7.40;;;2.00;;
62927;SDS011;51070;52.236;-0.892;2023-03-31T05:56:19;4.00;;;1.00;;
62927;SDS011;51070;52.236;-0.892;2023-03-31T05:58:46;3.90;;;1.60;;
62927;SDS011;51070;52.236;-0.892;2023-03-31T06:01:12;3.00;;;1.30;;
62927;SDS011;51070;52.236;-0.892;2023-03-31T06:03:44;4.10;;;1.10;;
62927;SDS011;51070;52.236;-0.892;2023-03-31T06:06:10;4.40;;;1.30;;
62927;SDS011;51070;52.236;-0.892;2023-03-31T06:08:43;3.30;;;1.00;;
62927;SDS011;51070;52.236;-0.892;2023-03-31T06:11:12;6.50;;;1.80;;
62927;SDS011;51070;52.236;-0.892;2023-03-31T06:13:40;6.40;;;1.80;;
62927;SDS011;51070;52.236;-0.892;2023-03-31T06:16:08;3.80;;;1.30;;
62927;SDS011;51070;52.236;-0.892;2023-03-31T06:21:00;6.30;;;1.50;;
62927;SDS011;51070;52.236;-0.892;2023-03-31T06:23:26;4.60;;;1.30;;
62927;SDS011;51070;52.236;-0.892;2023-03-31T06:25:52;6.70;;;1.50;;
62927;SDS011;51070;52.236;-0.892;2023-03-31T06:28:19;6.30;;;1.70;;
62927;SDS011;51070;52.236;-0.892;2023-03-31T06:30:45;6.20;;;1.60;;
62927;SDS011;51070;52.236;-0.892;2023-03-31T06:33:11;3.00;;;1.10;;
62927;SDS011;51070;52.236;-0.892;2023-03-31T06:35:37;4.30;;;1.20;;
62927;SDS011;51070;52.236;-0.892;2023-03-31T06:38:04;4.20;;;1.50;;
62927;SDS011;51070;52.236;-0.892;2023-03-31T06:40:30;7.10;;;1.70;;
62927;SDS011;51070;52.236;-0.892;2023-03-31T06:42:56;4.90;;;1.50;;
62927;SDS011;51070;52.236;-0.892;2023-03-31T06:45:21;4.50;;;1.50;;
62927;SDS011;51070;52.236;-0.892;2023-03-31T06:47:46;6.10;;;1.40;;
62927;SDS011;51070;52.236;-0.892;2023-03-31T06:50:12;4.80;;;1.80;;
62927;SDS011;51070;52.236;-0.892;2023-03-31T06:52:38;7.00;;;1.50;;
62927;SDS011;51070;52.236;-0.892;2023-03-31T06:55:05;6.80;;;1.30;;
62927;SDS011;51070;52.236;-0.892;2023-03-31T06:57:31;3.90;;;1.10;;
62927;SDS011;51070;52.236;-0.892;2023-03-31T06:59:58;4.60;;;0.90;;
62927;SDS011;51070;52.236;-0.892;2023-03-31T07:02:24;5.40;;;1.60;;
62927;SDS011;51070;52.236;-0.892;2023-03-31T07:04:49;3.20;;;1.00;;
62927;SDS011;51070;52.236;-0.892;2023-03-31T07:07:15;3.40;;;1.10;;
62927;SDS011;51070;52.236;-0.892;2023-03-31T07:09:40;2.10;;;1.00;;
62927;SDS011;51070;52.236;-0.892;2023-03-31T07:12:06;4.10;;;1.00;;
62927;SDS011;51070;52.236;-0.892;2023-03-31T07:14:31;3.20;;;1.30;;
62927;SDS011;51070;52.236;-0.892;2023-03-31T07:16:57;3.80;;;1.50;;
62927;SDS011;51070;52.236;-0.892;2023-03-31T07:19:23;3.80;;;1.30;;
62927;SDS011;51070;52.236;-0.892;2023-03-31T07:21:49;4.50;;;1.30;;
62927;SDS011;51070;52.236;-0.892;2023-03-31T07:24:15;3.20;;;1.00;;
62927;SDS011;51070;52.236;-0.892;2023-03-31T07:26:41;3.30;;;1.20;;
62927;SDS011;51070;52.236;-0.892;2023-03-31T07:29:06;5.70;;;1.40;;
62927;SDS011;51070;52.236;-0.892;2023-03-31T07:31:32;4.50;;;1.90;;
62927;SDS011;51070;52.236;-0.892;2023-03-31T07:33:58;4.50;;;1.40;;
62927;SDS011;51070;52.236;-0.892;2023-03-31T07:36:23;9.20;;;1.50;;
62927;SDS011;51070;52.236;-0.892;2023-03-31T07:38:49;3.30;;;1.10;;
62927;SDS011;51070;52.236;-0.892;2023-03-31T07:41:18;6.60;;;1.60;;
62927;SDS011;51070;52.236;-0.892;2023-03-31T07:43:45;6.30;;;1.40;;
62927;SDS011;51070;52.236;-0.892;2023-03-31T07:46:26;4.80;;;1.30;;
62927;SDS011;51070;52.236;-0.892;2023-03-31T07:48:53;5.00;;;1.20;;
62927;SDS011;51070;52.236;-0.892;2023-03-31T07:51:21;3.00;;;1.30;;
62927;SDS011;51070;52.236;-0.892;2023-03-31T07:53:49;4.90;;;1.40;;
62927;SDS011;51070;52.236;-0.892;2023-03-31T07:56:17;4.10;;;1.00;;
62927;SDS011;51070;52.236;-0.892;2023-03-31T07:58:43;4.50;;;1.20;;
62927;SDS011;51070;52.236;-0.892;2023-03-31T08:01:09;5.80;;;1.40;;
62927;SDS011;51070;52.236;-0.892;2023-03-31T08:03:40;3.40;;;1.30;;
62927;SDS011;51070;52.236;-0.892;2023-03-31T08:06:06;4.70;;;1.10;;
62927;SDS011;51070;52.236;-0.892;2023-03-31T08:08:32;4.60;;;1.10;;
62927;SDS011;51070;52.236;-0.892;2023-03-31T08:10:57;4.40;;;1.20;;
62927;SDS011;51070;52.236;-0.892;2023-03-31T08:13:22;5.90;;;1.60;;
62927;SDS011;51070;52.236;-0.892;2023-03-31T08:15:48;5.80;;;1.70;;
62927;SDS011;51070;52.236;-0.892;2023-03-31T08:18:13;6.30;;;1.70;;
62927;SDS011;51070;52.236;-0.892;2023-03-31T08:20:39;5.10;;;1.40;;
62927;SDS011;51070;52.236;-0.892;2023-03-31T08:23:04;7.00;;;1.80;;
62927;SDS011;51070;52.236;-0.892;2023-03-31T08:25:33;5.30;;;1.50;;
62927;SDS011;51070;52.236;-0.892;2023-03-31T08:27:58;5.90;;;1.90;;
62927;SDS011;51070;52.236;-0.892;2023-03-31T08:30:24;6.80;;;1.60;;
62927;SDS011;51070;52.236;-0.892;2023-03-31T08:32:50;8.70;;;1.90;;
62927;SDS011;51070;52.236;-0.892;2023-03-31T08:35:15;4.60;;;1.40;;
62927;SDS011;51070;52.236;-0.892;2023-03-31T08:37:41;3.40;;;1.60;;
62927;SDS011;51070;52.236;-0.892;2023-03-31T08:40:06;5.10;;;1.50;;
62927;SDS011;51070;52.236;-0.892;2023-03-31T08:42:43;3.90;;;1.60;;
62927;SDS011;51070;52.236;-0.892;2023-03-31T08:47:54;6.00;;;1.20;;
62927;SDS011;51070;52.236;-0.892;2023-03-31T08:50:24;6.70;;;1.90;;
62927;SDS011;51070;52.236;-0.892;2023-03-31T08:55:48;3.90;;;1.00;;
62927;SDS011;51070;52.236;-0.892;2023-03-31T09:00:55;5.30;;;1.10;;
62927;SDS011;51070;52.236;-0.892;2023-03-31T09:03:30;3.70;;;1.00;;
62927;SDS011;51070;52.236;-0.892;2023-03-31T09:06:10;1.70;;;0.50;;
62927;SDS011;51070;52.236;-0.892;2023-03-31T09:08:41;1.50;;;0.70;;
62927;SDS011;51070;52.236;-0.892;2023-03-31T09:16:40;1.50;;;1.00;;
62927;SDS011;51070;52.236;-0.892;2023-03-31T09:19:13;3.10;;;0.90;;
62927;SDS011;51070;52.236;-0.892;2023-03-31T09:21:59;3.60;;;1.00;;
62927;SDS011;51070;52.236;-0.892;2023-03-31T09:24:30;2.50;;;1.10;;
62927;SDS011;51070;52.236;-0.892;2023-03-31T09:27:01;3.40;;;1.30;;
62927;SDS011;51070;52.236;-0.892;2023-03-31T09:29:31;2.10;;;0.80;;
62927;SDS011;51070;52.236;-0.892;2023-03-31T09:32:18;3.10;;;0.70;;
62927;SDS011;51070;52.236;-0.892;2023-03-31T09:34:46;2.00;;;0.70;;
62927;SDS011;51070;52.236;-0.892;2023-03-31T09:37:15;1.80;;;0.60;;
62927;SDS011;51070;52.236;-0.892;2023-03-31T09:39:41;2.00;;;0.90;;
62927;SDS011;51070;52.236;-0.892;2023-03-31T09:42:08;1.80;;;0.70;;
62927;SDS011;51070;52.236;-0.892;2023-03-31T09:44:37;1.80;;;1.00;;
62927;SDS011;51070;52.236;-0.892;2023-03-31T09:47:25;1.20;;;0.50;;
62927;SDS011;51070;52.236;-0.892;2023-03-31T09:49:57;2.50;;;0.90;;
62927;SDS011;51070;52.236;-0.892;2023-03-31T09:52:27;1.30;;;0.70;;
62927;SDS011;51070;52.236;-0.892;2023-03-31T09:54:55;1.60;;;0.90;;
62927;SDS011;51070;52.236;-0.892;2023-03-31T09:57:31;1.40;;;0.90;;
62927;SDS011;51070;52.236;-0.892;2023-03-31T10:02:41;1.90;;;0.70;;
62927;SDS011;51070;52.236;-0.892;2023-03-31T10:06:07;2.10;;;0.90;;
62927;SDS011;51070;52.236;-0.892;2023-03-31T10:08:39;3.40;;;1.20;;
62927;SDS011;51070;52.236;-0.892;2023-03-31T10:11:10;2.20;;;0.80;;
62927;SDS011;51070;52.236;-0.892;2023-03-31T10:16:13;3.50;;;1.30;;
62927;SDS011;51070;52.236;-0.892;2023-03-31T10:18:51;2.50;;;1.00;;
62927;SDS011;51070;52.236;-0.892;2023-03-31T10:21:24;4.70;;;1.20;;
62927;SDS011;51070;52.236;-0.892;2023-03-31T10:23:52;1.60;;;0.80;;
62927;SDS011;51070;52.236;-0.892;2023-03-31T10:26:23;2.60;;;1.10;;
62927;SDS011;51070;52.236;-0.892;2023-03-31T10:28:52;2.90;;;1.50;;
62927;SDS011;51070;52.236;-0.892;2023-03-31T10:31:19;2.30;;;1.00;;
62927;SDS011;51070;52.236;-0.892;2023-03-31T10:33:49;1.70;;;0.90;;
62927;SDS011;51070;52.236;-0.892;2023-03-31T10:38:49;4.10;;;1.40;;
62927;SDS011;51070;52.236;-0.892;2023-03-31T10:41:17;3.50;;;1.70;;
62927;SDS011;51070;52.236;-0.892;2023-03-31T10:43:52;4.50;;;1.70;;
62927;SDS011;51070;52.236;-0.892;2023-03-31T10:46:19;3.40;;;1.40;;
62927;SDS011;51070;52.236;-0.892;2023-03-31T10:48:45;5.90;;;1.70;;
62927;SDS011;51070;52.236;-0.892;2023-03-31T10:51:19;3.00;;;1.60;;
62927;SDS011;51070;52.236;-0.892;2023-03-31T10:53:50;2.00;;;1.20;;
62927;SDS011;51070;52.236;-0.892;2023-03-31T10:56:26;2.00;;;0.80;;
62927;SDS011;51070;52.236;-0.892;2023-03-31T11:15:13;2.20;;;1.30;;
62927;SDS011;51070;52.236;-0.892;2023-03-31T11:17:53;4.90;;;2.40;;
62927;SDS011;51070;52.236;-0.892;2023-03-31T11:26:30;3.50;;;1.80;;
62927;SDS011;51070;52.236;-0.892;2023-03-31T11:29:03;2.70;;;1.20;;
62927;SDS011;51070;52.236;-0.892;2023-03-31T11:40:24;3.20;;;1.60;;
62927;SDS011;51070;52.236;-0.892;2023-03-31T11:46:12;2.30;;;1.10;;
62927;SDS011;51070;52.236;-0.892;2023-03-31T11:51:29;0.90;;;0.70;;
62927;SDS011;51070;52.236;-0.892;2023-03-31T11:54:05;0.60;;;0.40;;
62927;SDS011;51070;52.236;-0.892;2023-03-31T11:56:37;1.00;;;0.60;;
62927;SDS011;51070;52.236;-0.892;2023-03-31T11:59:05;3.60;;;1.50;;
62927;SDS011;51070;52.236;-0.892;2023-03-31T12:01:35;3.60;;;1.70;;
62927;SDS011;51070;52.236;-0.892;2023-03-31T12:06:59;2.10;;;0.90;;
62927;SDS011;51070;52.236;-0.892;2023-03-31T12:10:37;4.30;;;2.80;;
62927;SDS011;51070;52.236;-0.892;2023-03-31T12:12:48;8.40;;;5.10;;
62927;SDS011;51070;52.236;-0.892;2023-03-31T12:15:31;5.00;;;3.20;;
62927;SDS011;51070;52.236;-0.892;2023-03-31T12:18:08;2.30;;;1.40;;
62927;SDS011;51070;52.236;-0.892;2023-03-31T12:20:36;3.20;;;1.60;;
62927;SDS011;51070;52.236;-0.892;2023-03-31T12:23:16;2.20;;;0.90;;
62927;SDS011;51070;52.236;-0.892;2023-03-31T12:28:25;1.60;;;0.90;;
62927;SDS011;51070;52.236;-0.892;2023-03-31T12:30:53;1.00;;;0.90;;
62927;SDS011;51070;52.236;-0.892;2023-03-31T12:35:55;2.70;;;1.50;;
62927;SDS011;51070;52.236;-0.892;2023-03-31T12:38:49;1.20;;;1.00;;
62927;SDS011;51070;52.236;-0.892;2023-03-31T12:41:38;0.70;;;0.70;;
62927;SDS011;51070;52.236;-0.892;2023-03-31T12:47:20;2.10;;;1.00;;
62927;SDS011;51070;52.236;-0.892;2023-03-31T12:52:56;1.90;;;0.90;;
62927;SDS011;51070;52.236;-0.892;2023-03-31T12:55:36;2.30;;;1.70;;
62927;SDS011;51070;52.236;-0.892;2023-03-31T13:01:05;4.40;;;1.40;;
62927;SDS011;51070;52.236;-0.892;2023-03-31T13:09:00;8.60;;;4.00;;
62927;SDS011;51070;52.236;-0.892;2023-03-31T13:16:51;1.30;;;1.10;;
62927;SDS011;51070;52.236;-0.892;2023-03-31T13:19:35;2.90;;;1.50;;
62927;SDS011;51070;52.236;-0.892;2023-03-31T13:22:02;1.40;;;1.10;;
62927;SDS011;51070;52.236;-0.892;2023-03-31T13:24:29;1.80;;;1.00;;
62927;SDS011;51070;52.236;-0.892;2023-03-31T13:26:57;6.00;;;1.80;;
62927;SDS011;51070;52.236;-0.892;2023-03-31T13:29:42;3.50;;;1.30;;
62927;SDS011;51070;52.236;-0.892;2023-03-31T13:34:41;4.50;;;1.70;;
62927;SDS011;51070;52.236;-0.892;2023-03-31T13:40:07;3.80;;;1.90;;
62927;SDS011;51070;52.236;-0.892;2023-03-31T13:42:58;2.50;;;1.60;;
62927;SDS011;51070;52.236;-0.892;2023-03-31T13:48:21;3.80;;;1.70;;
62927;SDS011;51070;52.236;-0.892;2023-03-31T13:59:12;5.30;;;1.70;;
62927;SDS011;51070;52.236;-0.892;2023-03-31T14:05:02;3.20;;;1.50;;
62927;SDS011;51070;52.236;-0.892;2023-03-31T14:10:36;2.50;;;1.40;;
62927;SDS011;51070;52.236;-0.892;2023-03-31T14:15:39;3.30;;;2.40;;
62927;SDS011;51070;52.236;-0.892;2023-03-31T14:18:15;5.30;;;3.10;;
62927;SDS011;51070;52.236;-0.892;2023-03-31T14:21:07;8.40;;;5.00;;
62927;SDS011;51070;52.236;-0.892;2023-03-31T14:32:12;3.90;;;2.60;;
62927;SDS011;51070;52.236;-0.892;2023-03-31T14:37:25;2.50;;;2.10;;
62927;SDS011;51070;52.236;-0.892;2023-03-31T14:39:53;2.60;;;2.10;;
62927;SDS011;51070;52.236;-0.892;2023-03-31T14:42:41;3.80;;;2.00;;
62927;SDS011;51070;52.236;-0.892;2023-03-31T14:47:54;4.50;;;2.10;;
62927;SDS011;51070;52.236;-0.892;2023-03-31T14:50:29;4.10;;;2.20;;
62927;SDS011;51070;52.236;-0.892;2023-03-31T14:52:58;1.90;;;1.50;;
62927;SDS011;51070;52.236;-0.892;2023-03-31T14:55:26;2.80;;;1.50;;
62927;SDS011;51070;52.236;-0.892;2023-03-31T14:57:53;2.90;;;1.50;;
62927;SDS011;51070;52.236;-0.892;2023-03-31T15:00:26;2.50;;;1.50;;
62927;SDS011;51070;52.236;-0.892;2023-03-31T15:02:55;3.60;;;1.90;;
62927;SDS011;51070;52.236;-0.892;2023-03-31T15:07:56;2.60;;;1.70;;
62927;SDS011;51070;52.236;-0.892;2023-03-31T15:10:39;7.70;;;4.50;;
62927;SDS011;51070;52.236;-0.892;2023-03-31T15:13:08;5.10;;;2.60;;
62927;SDS011;51070;52.236;-0.892;2023-03-31T15:15:35;5.90;;;3.50;;
62927;SDS011;51070;52.236;-0.892;2023-03-31T15:18:01;4.50;;;1.90;;
62927;SDS011;51070;52.236;-0.892;2023-03-31T15:20:30;4.00;;;1.80;;
62927;SDS011;51070;52.236;-0.892;2023-03-31T15:23:02;2.80;;;1.40;;
62927;SDS011;51070;52.236;-0.892;2023-03-31T15:25:31;10.40;;;5.40;;
62927;SDS011;51070;52.236;-0.892;2023-03-31T15:28:03;11.40;;;6.70;;
62927;SDS011;51070;52.236;-0.892;2023-03-31T15:30:31;3.80;;;2.50;;
62927;SDS011;51070;52.236;-0.892;2023-03-31T15:32:57;1.50;;;0.90;;
62927;SDS011;51070;52.236;-0.892;2023-03-31T15:35:25;4.10;;;2.10;;
62927;SDS011;51070;52.236;-0.892;2023-03-31T15:37:55;1.30;;;0.80;;
62927;SDS011;51070;52.236;-0.892;2023-03-31T15:42:57;3.20;;;1.80;;
62927;SDS011;51070;52.236;-0.892;2023-03-31T15:45:35;2.30;;;1.80;;
62927;SDS011;51070;52.236;-0.892;2023-03-31T15:48:03;4.80;;;2.70;;
62927;SDS011;51070;52.236;-0.892;2023-03-31T15:50:31;7.50;;;3.90;;
62927;SDS011;51070;52.236;-0.892;2023-03-31T15:52:57;3.80;;;2.00;;
62927;SDS011;51070;52.236;-0.892;2023-03-31T15:55:26;2.20;;;1.30;;
62927;SDS011;51070;52.236;-0.892;2023-03-31T15:57:55;7.30;;;3.40;;
62927;SDS011;51070;52.236;-0.892;2023-03-31T16:05:57;8.20;;;4.70;;
62927;SDS011;51070;52.236;-0.892;2023-03-31T16:10:54;3.80;;;2.30;;
62927;SDS011;51070;52.236;-0.892;2023-03-31T16:13:27;5.00;;;2.30;;
62927;SDS011;51070;52.236;-0.892;2023-03-31T16:15:55;4.40;;;2.80;;
62927;SDS011;51070;52.236;-0.892;2023-03-31T16:18:43;6.60;;;4.30;;
62927;SDS011;51070;52.236;-0.892;2023-03-31T16:21:11;7.60;;;3.90;;
62927;SDS011;51070;52.236;-0.892;2023-03-31T16:23:40;8.90;;;5.10;;
62927;SDS011;51070;52.236;-0.892;2023-03-31T16:28:34;4.00;;;3.30;;
62927;SDS011;51070;52.236;-0.892;2023-03-31T16:31:02;6.40;;;4.00;;
62927;SDS011;51070;52.236;-0.892;2023-03-31T16:33:29;4.60;;;3.00;;
62927;SDS011;51070;52.236;-0.892;2023-03-31T16:36:15;5.00;;;3.00;;
62927;SDS011;51070;52.236;-0.892;2023-03-31T16:38:41;3.00;;;2.20;;
62927;SDS011;51070;52.236;-0.892;2023-03-31T16:41:07;6.80;;;4.00;;
62927;SDS011;51070;52.236;-0.892;2023-03-31T16:43:32;6.90;;;3.80;;
62927;SDS011;51070;52.236;-0.892;2023-03-31T16:45:59;10.10;;;5.80;;
62927;SDS011;51070;52.236;-0.892;2023-03-31T16:48:28;10.30;;;4.90;;
62927;SDS011;51070;52.236;-0.892;2023-03-31T16:50:58;8.40;;;5.10;;
62927;SDS011;51070;52.236;-0.892;2023-03-31T16:53:29;13.20;;;6.00;;
62927;SDS011;51070;52.236;-0.892;2023-03-31T16:55:57;10.80;;;5.90;;
62927;SDS011;51070;52.236;-0.892;2023-03-31T16:58:23;15.60;;;9.40;;
62927;SDS011;51070;52.236;-0.892;2023-03-31T17:00:50;8.00;;;5.40;;
62927;SDS011;51070;52.236;-0.892;2023-03-31T17:03:16;9.30;;;4.50;;
62927;SDS011;51070;52.236;-0.892;2023-03-31T17:05:46;12.40;;;7.30;;
62927;SDS011;51070;52.236;-0.892;2023-03-31T17:08:14;13.60;;;7.90;;
62927;SDS011;51070;52.236;-0.892;2023-03-31T17:10:40;17.70;;;10.50;;
62927;SDS011;51070;52.236;-0.892;2023-03-31T17:13:07;13.10;;;7.90;;
62927;SDS011;51070;52.236;-0.892;2023-03-31T17:15:33;7.60;;;3.70;;
62927;SDS011;51070;52.236;-0.892;2023-03-31T17:18:02;10.80;;;5.00;;
62927;SDS011;51070;52.236;-0.892;2023-03-31T17:20:28;14.10;;;8.40;;
62927;SDS011;51070;52.236;-0.892;2023-03-31T17:22:54;29.70;;;17.00;;
62927;SDS011;51070;52.236;-0.892;2023-03-31T17:25:20;16.90;;;11.30;;
62927;SDS011;51070;52.236;-0.892;2023-03-31T17:27:46;39.90;;;23.80;;
62927;SDS011;51070;52.236;-0.892;2023-03-31T17:30:12;16.10;;;9.60;;
62927;SDS011;51070;52.236;-0.892;2023-03-31T17:32:37;13.50;;;7.70;;
62927;SDS011;51070;52.236;-0.892;2023-03-31T17:35:04;42.00;;;24.80;;
62927;SDS011;51070;52.236;-0.892;2023-03-31T17:37:30;25.70;;;16.30;;
62927;SDS011;51070;52.236;-0.892;2023-03-31T17:39:57;26.80;;;17.30;;
62927;SDS011;51070;52.236;-0.892;2023-03-31T17:42:22;20.50;;;12.80;;
62927;SDS011;51070;52.236;-0.892;2023-03-31T17:44:48;11.00;;;6.70;;
62927;SDS011;51070;52.236;-0.892;2023-03-31T17:47:16;10.40;;;5.80;;
62927;SDS011;51070;52.236;-0.892;2023-03-31T17:49:41;7.40;;;4.20;;
62927;SDS011;51070;52.236;-0.892;2023-03-31T17:52:07;14.90;;;10.10;;
62927;SDS011;51070;52.236;-0.892;2023-03-31T17:54:32;26.20;;;13.40;;
62927;SDS011;51070;52.236;-0.892;2023-03-31T17:56:58;20.50;;;11.80;;
62927;SDS011;51070;52.236;-0.892;2023-03-31T17:59:23;10.90;;;6.90;;
62927;SDS011;51070;52.236;-0.892;2023-03-31T18:01:49;11.80;;;6.80;;
62927;SDS011;51070;52.236;-0.892;2023-03-31T18:04:15;7.20;;;4.70;;
62927;SDS011;51070;52.236;-0.892;2023-03-31T18:06:41;5.40;;;3.10;;
62927;SDS011;51070;52.236;-0.892;2023-03-31T18:09:08;4.40;;;2.50;;
62927;SDS011;51070;52.236;-0.892;2023-03-31T18:11:36;12.70;;;7.30;;
62927;SDS011;51070;52.236;-0.892;2023-03-31T18:14:02;17.20;;;10.50;;
62927;SDS011;51070;52.236;-0.892;2023-03-31T18:16:28;8.40;;;4.60;;
62927;SDS011;51070;52.236;-0.892;2023-03-31T18:18:55;11.70;;;5.70;;
62927;SDS011;51070;52.236;-0.892;2023-03-31T18:21:21;21.80;;;11.90;;